Dernières infos :  

11/11/2017  Mise à jour des tableaux d'analyses décadaires : rubrique climatologie
04/11/2017 Mise en ligne de la synthèse climatologique d'Octobre 2017 : 
CLIQUEZ ICI
03/11/2017  Mise à jour des tableaux d'analyses décadaires, mensuelles et annuelles : rubrique climatologie   

Si l'entête du tableau ne s'affiche pas correctement, => actualisez la page (F5 avec Internet Explorer, Chrome...).
Utilisez l'ascenseur sur la droite des lignes du tableau pour faire défiler verticalement les jours du mois.

TABLEAU DES DONNEES COMPLETES NOAA de MAI 2017

DATE TEMPERATURE
sous abri
TEMPARATURE 
au sol
VENT  et  Indice de Refroidissement Eolien  PRECIPITATIONS (en mm/m2)
et Intensité
PRESSION ATMOSPHERIQUE (en hPa) HUMIDITE de l'AIR RADIATIONS SOLAIRES (en W/m2)
Mini Moy. Maxi Mini Moy. Maxi Moyen Rafale I.R.E.
Minii
Précip. jour Cumul mois Intensité Maxi Mini Moy. Maxi Mini Moy. Maxi Pic maxi du jour Total jour
01/05/17 5.4° 15.3° 3.9° 9.7° 20.6° 5.6km/h dir SSE 30.6km/h dir OSO 3.5° 10.6 10.6 6.6mm/h 1009.4 1014.4 1019.6 51% 83.1% 94% 1141 56 245
02/05/17 5.4° 8.6° 12.6° 3.3° 8.5° 17.2° 5.1km/h dir SE 25.7km/h dir ESE 4.8° 11 21.6 9.2mm/h 1014 1015.7 1018.4 82% 91% 95% 930 23 212
03/05/17 7.5° 10.2° 16.8° 5.6° 10.7° 22.2° 3.1km/h dir SSE 24.1km/h dir NE 7.2° 2.8 24.4 3.6mm/h 1016 1017.4 1018.6 58% 88.3% 96% 983 38 758
04/05/17 7.3° 10.7° 16.3° 11° 21.7° 2.9km/h dir N 14.5km/h dir ONO 7.4° 6.4 30.8 20.8mm/h 1014.4 1015.3 1017.3 61% 85.9% 96% 1111 42 218
05/05/17 3.2° 11.8° 21.1° 1.7° 12.2° 24.4° 2.4km/h dir ESE 14.5km/h dir SO 3.1° 0 30.8 1010 1014.7 1017.5 49% 80.8% 97% 925 77 133
06/05/17 11.2° 12.8° 15.3° 10° 12.4° 14.4° 7.6km/h dir SE 32.2km/h dir SSE 9.6° 12.6 43.4 10.2mm/h 1006.9 1010.7 1016.3 70% 85.9% 95% 279 13 217
07/05/17 10.6° 12.1° 14° 10° 11.9° 15° 2.6km/h dir SSE 16.1km/h dir S 10.1° 0.4 43.8 1.8mm/h 1016.2 1018.2 1019.6 80% 90.2% 95% 253 11 816
08/05/17 8.5° 10.3° 11.9° 7.8° 10.6° 13.9° 7.4km/h dir NO 24.1km/h dir NO 6.7° 1.2 45 1.2mm/h 1018.6 1019.8 1020.7 79% 88.8% 96% 397 24 448
09/05/17 6.6° 11.8° 17.2° 12.3° 22.2° 9.3km/h dir NO 29km/h dir ONO 5.4° 0 45 1009.9 1014.9 1020.3 55% 74.8% 93% 1239 71 601
10/05/17 3.2° 13.3° 22.6° 1.1° 13.6° 26.1° 7.1km/h dir S 45.1km/h dir SSE 3.2° 0 45 1003.9 1006.5 1010 48% 73.3% 96% 939 72 841
11/05/17 12.3° 14.2° 16.7° 11.1° 13.6° 18.9° 6.9km/h dir SSE 35.4km/h dir SE 11.4° 9.8 54.8 5.6mm/h 997.4 999.6 1004.1 69% 84.2% 94% 413 16 914
12/05/17 12.2° 14.4° 19° 10° 14.2° 22.2° 5.5km/h dir SSE 22.5km/h dir S 11.7° 6.4 61.2 7.6mm/h 1000.7 1003.9 1008.4 75% 87.7% 95% 1053 31 211
13/05/17 10.7° 15° 19.7° 8.3° 15.2° 23.9° 3.7km/h dir NO 19.3km/h dir O 10.6° 0.4 61.6 0.8mm/h 1008.5 1012.7 1017.6 67% 85.2% 96% 1153 43 147
14/05/17 10.7° 16.7° 23.3° 8.3° 17.4° 28.3° 2.7km/h dir ONO 16.1km/h dir NO 10.7° 0 61.6 1017.5 1021.9 1025.9 51% 77.6% 96% 1071 70 643
15/05/17 8.8° 16.7° 23.1° 6.7° 17.1° 29.4° 5.3km/h dir NO 27.4km/h dir NO 8.8° 0 61.6 1025.9 1027.3 1028.8 47% 73.5% 96% 877 82 529
16/05/17 8.8° 18° 26.9° 7.2° 18.3° 31.1° 2.7km/h dir NNE 12.9km/h dir NO 8.8° 0 61.6 1022.8 1025.3 1027.3 43% 71.8% 96% 881 82 864
17/05/17 12.4° 21.2° 28.3° 10° 21.6° 33.9° 8.4km/h dir SSE 38.6km/h dir SSE 12.4° 0 61.6 1013.3 1018 1022.8 40% 63.4% 93% 867 81 817
18/05/17 13.8° 20.6° 26.5° 13.3° 21.3° 35.6° 6.6km/h dir SSE 38.6km/h dir SSE 12.7° 0 61.6 1007.7 1011.6 1014.4 46% 63.8% 83% 1169 63 317
19/05/17 9.3° 12.1° 16.5° 7.8° 12.7° 22.8° 5.6km/h dir SSO 30.6km/h dir NO 8.2° 14.8 76.4 25mm/h 1013 1016 1019.1 62% 83.1% 94% 1308 46 283
20/05/17 8.9° 13.2° 18.9° 7.2° 14.3° 25° 3.5km/h dir NNE 17.7km/h dir O 8.7° 0.2 76.6 1019.1 1022.1 1024.6 48% 74% 95% 1252 67 620
21/05/17 6.3° 14.6° 22.4° 4.4° 15.6° 27.8° 4.3km/h dir ONO 20.9km/h dir ONO 5.7° 0 76.6 1018.2 1021.9 1024.6 53% 75.9% 95% 1023 83 064
22/05/17 9.2° 18.6° 26.8° 7.8° 18.9° 30.6° 6km/h dir ESE 40.2km/h dir SSE 8.9° 0 76.6 1014.9 1016.2 1018.2 35% 65.6% 95% 967 83 805
23/05/17 14.7° 20.7° 26.9° 12.2° 21.8° 32.8° 4.7km/h dir SE 20.9km/h dir NO 14.7° 0 76.6 1016.7 1018.9 1021.1 47% 67.7% 85% 916 83 921
24/05/17 13.9° 20.2° 25.2° 12.8° 21.2° 31.1° 9.7km/h dir NO 30.6km/h dir N 13.9° 0 76.6 1018.9 1020.6 1022 49% 69.9% 89% 886 85 997
25/05/17 13.7° 20.7° 26.8° 11.7° 21.5° 32.2° 10.3km/h dir NO 38.6km/h dir NNE 13.7° 0 76.6 1013.7 1016.2 1019.1 41% 65.5% 89% 911 87 402
26/05/17 11.8° 21.5° 30.3° 10° 22.1° 35.6° 3.2km/h dir SE 19.3km/h dir OSO 11.8° 0 76.6 1012.4 1014.3 1016 42% 67.3% 94% 874 87 339
27/05/17 18.8° 24.3° 30.2° 16.1° 24.8° 34.4° 7.2km/h dir SSE 24.1km/h dir SSO 18.8° 0 76.6 1014.2 1016.1 1017.4 42% 55.8% 71% 868 87 063
28/05/17 16.9° 24.4° 30.8° 13.3° 24.5° 35.6° 8.4km/h dir SSE 40.2km/h dir S 16.9° 0 76.6 1014.7 1016.5 1017.7 29% 52.1% 74% 898 89 219
29/05/17 19° 24.6° 30.9° 17.2° 25.1° 35° 8.9km/h dir SSE 35.4km/h dir S 19.1° 0 76.6 1011.6 1013.6 1015.6 27% 44.8% 58% 904 87 258
30/05/17 18° 22.8° 28.3° 14.4° 23.6° 33.9° 4.5km/h dir O 16.1km/h dir ONO 18° 0 76.6 1013.2 1014.8 1017.2 45% 61.4% 78% 977 79 534
31/05/17 16.8° 19.8° 27.2° 15.6° 20.8° 32.2° 6km/h dir NNE 22.5km/h dir NO 16.8° 15.6 92.2 59.4mm/h 1016.7 1018.2 1020.4 60% 82.4% 94% 998 58 094

RETOUR ACCUEIL


Date de création : 01/06/2017 : 22:15
Catégorie : - MOIS PASSES - MAI 2017
Page lue 231 fois